createdAt,value
2022-11-06T00:01:09.872Z,9.70
2022-11-06T00:03:37.126Z,9.71
2022-11-06T00:06:30.801Z,9.71
2022-11-06T00:08:59.910Z,9.64
2022-11-06T00:11:26.665Z,9.67
2022-11-06T00:13:53.156Z,9.60
2022-11-06T00:16:20.538Z,9.66
2022-11-06T00:18:47.678Z,9.63
2022-11-06T00:21:28.564Z,9.66
2022-11-06T00:23:57.017Z,9.62
2022-11-06T00:26:25.862Z,9.42
2022-11-06T00:28:53.159Z,9.68
2022-11-06T00:31:22.316Z,9.68
2022-11-06T00:33:49.008Z,9.67
2022-11-06T00:36:18.275Z,9.67
2022-11-06T00:38:45.651Z,9.58
2022-11-06T00:41:15.187Z,9.71
2022-11-06T00:43:42.231Z,9.59
2022-11-06T00:46:10.796Z,9.70
2022-11-06T00:48:38.011Z,9.66
2022-11-06T00:51:10.134Z,9.62
2022-11-06T00:53:37.379Z,9.63
2022-11-06T00:56:09.810Z,9.60
2022-11-06T00:58:36.685Z,9.54
2022-11-06T01:01:13.984Z,9.58
2022-11-06T01:03:41.829Z,9.57
2022-11-06T01:06:17.175Z,9.42
2022-11-06T01:08:44.854Z,9.55
2022-11-06T01:11:46.564Z,9.46
2022-11-06T01:14:18.120Z,9.53
2022-11-06T01:16:45.323Z,9.47
2022-11-06T01:19:14.651Z,9.49
2022-11-06T01:21:43.706Z,9.48
2022-11-06T01:24:13.224Z,9.36
2022-11-06T01:26:53.307Z,9.46
2022-11-06T01:29:26.533Z,9.43
2022-11-06T01:31:52.933Z,9.48
2022-11-06T01:34:19.351Z,9.46
2022-11-06T01:36:46.745Z,9.39
2022-11-06T01:39:15.431Z,9.46
2022-11-06T01:41:50.866Z,9.48
2022-11-06T01:44:35.311Z,9.46
2022-11-06T01:47:04.744Z,9.45
2022-11-06T01:49:37.505Z,9.42
2022-11-06T01:52:10.130Z,9.36
2022-11-06T01:54:39.899Z,9.41
2022-11-06T01:57:07.409Z,9.46
2022-11-06T01:59:37.150Z,9.33
2022-11-06T02:02:04.351Z,9.29
2022-11-06T02:04:40.583Z,9.40
2022-11-06T02:07:08.058Z,9.42
2022-11-06T02:09:35.028Z,9.47
2022-11-06T02:12:22.428Z,9.43
2022-11-06T02:14:58.470Z,9.39
2022-11-06T02:17:41.553Z,9.40
2022-11-06T02:20:17.364Z,9.42
2022-11-06T02:23:05.797Z,9.40
2022-11-06T02:25:46.229Z,9.39
2022-11-06T02:28:27.937Z,9.42
2022-11-06T02:30:58.323Z,9.41
2022-11-06T02:33:36.530Z,9.30
2022-11-06T02:36:13.297Z,9.34
2022-11-06T02:38:54.917Z,9.31
2022-11-06T02:41:28.439Z,9.36
2022-11-06T02:43:56.685Z,9.37
2022-11-06T02:46:37.360Z,9.36
2022-11-06T02:49:08.758Z,9.36
2022-11-06T02:51:40.140Z,9.34
2022-11-06T02:54:08.311Z,9.30
2022-11-06T02:56:39.613Z,9.36
2022-11-06T02:59:11.894Z,9.30
2022-11-06T03:01:52.462Z,9.37
2022-11-06T03:04:26.143Z,9.14
2022-11-06T03:07:00.924Z,9.39
2022-11-06T03:09:31.644Z,9.38
2022-11-06T03:12:05.600Z,9.37
2022-11-06T03:14:46.353Z,9.34
2022-11-06T03:17:22.877Z,9.35
2022-11-06T03:20:24.192Z,9.28
2022-11-06T03:22:57.531Z,9.33
2022-11-06T03:25:35.051Z,9.33
2022-11-06T03:28:10.569Z,9.33
2022-11-06T03:30:42.998Z,9.35
2022-11-06T03:33:33.545Z,9.33
2022-11-06T03:36:18.406Z,9.31
2022-11-06T03:38:52.869Z,9.35
2022-11-06T03:41:42.233Z,9.34
2022-11-06T03:44:12.786Z,9.21
2022-11-06T03:46:46.406Z,9.29
2022-11-06T03:49:21.904Z,9.33
2022-11-06T03:51:57.308Z,9.27
2022-11-06T03:54:27.713Z,9.16
2022-11-06T03:57:11.372Z,9.31
2022-11-06T03:59:48.584Z,9.29
2022-11-06T04:02:17.928Z,9.29
2022-11-06T04:04:52.542Z,9.24
2022-11-06T04:07:22.437Z,9.29
2022-11-06T04:10:12.470Z,9.30
2022-11-06T04:13:00.054Z,9.30
2022-11-06T04:15:31.294Z,9.26
2022-11-06T04:17:57.701Z,9.17
2022-11-06T04:20:43.262Z,9.31
2022-11-06T04:23:20.057Z,9.35
2022-11-06T04:26:18.653Z,9.29
2022-11-06T04:29:11.070Z,9.30
2022-11-06T04:31:48.876Z,9.37
2022-11-06T04:34:42.801Z,9.31
2022-11-06T04:37:30.372Z,9.36
2022-11-06T04:40:06.537Z,9.33
2022-11-06T04:42:42.507Z,9.22
2022-11-06T04:45:21.264Z,9.15
2022-11-06T04:47:49.519Z,9.38
2022-11-06T04:50:20.561Z,9.33
2022-11-06T04:52:48.058Z,9.36
2022-11-06T04:55:14.428Z,9.24
2022-11-06T04:57:40.874Z,9.33
2022-11-06T05:00:08.108Z,9.31
2022-11-06T05:02:34.760Z,9.27
2022-11-06T05:05:01.147Z,9.31
2022-11-06T05:07:27.527Z,9.30
2022-11-06T05:09:53.969Z,9.27
2022-11-06T05:12:20.529Z,9.20
2022-11-06T05:14:46.949Z,9.28
2022-11-06T05:17:13.410Z,9.29
2022-11-06T05:19:39.855Z,9.30
2022-11-06T05:22:24.945Z,9.24
2022-11-06T05:24:51.382Z,9.30
2022-11-06T05:27:17.879Z,9.33
2022-11-06T05:29:44.553Z,9.34
2022-11-06T05:32:10.969Z,9.32
2022-11-06T05:34:37.412Z,9.29
2022-11-06T05:37:03.916Z,9.30
2022-11-06T05:39:30.356Z,9.20
2022-11-06T05:41:56.749Z,9.31
2022-11-06T05:44:23.210Z,9.33
2022-11-06T05:46:50.342Z,9.29
2022-11-06T05:49:18.247Z,9.33
2022-11-06T05:51:45.044Z,9.31
2022-11-06T05:54:11.422Z,9.29
2022-11-06T05:56:37.877Z,9.31
2022-11-06T05:59:04.489Z,9.34
2022-11-06T06:01:31.017Z,9.31
2022-11-06T06:03:57.612Z,9.29
2022-11-06T06:06:24.103Z,9.27
2022-11-06T06:08:50.486Z,9.25
2022-11-06T06:11:16.945Z,9.23
2022-11-06T06:13:43.450Z,9.28
2022-11-06T06:16:09.936Z,9.27
2022-11-06T06:18:36.387Z,9.22
2022-11-06T06:21:02.799Z,9.26
2022-11-06T06:23:29.209Z,9.24
2022-11-06T06:25:56.810Z,9.21
2022-11-06T06:28:23.228Z,9.21
2022-11-06T06:30:49.635Z,9.20
2022-11-06T06:33:16.012Z,9.23
2022-11-06T06:35:42.372Z,9.20
2022-11-06T06:38:08.838Z,9.22
2022-11-06T06:40:35.270Z,9.14
2022-11-06T06:43:01.635Z,9.17
2022-11-06T06:45:28.071Z,9.17
2022-11-06T06:47:54.544Z,9.21
2022-11-06T06:50:21.061Z,9.19
2022-11-06T06:52:47.634Z,9.20
2022-11-06T06:55:14.234Z,9.22
2022-11-06T06:57:40.694Z,9.18
2022-11-06T07:00:07.941Z,9.20
2022-11-06T07:02:34.366Z,9.16
2022-11-06T07:05:00.778Z,9.23
2022-11-06T07:07:27.201Z,9.17
2022-11-06T07:09:53.620Z,9.19
2022-11-06T07:12:19.994Z,9.18
2022-11-06T07:14:46.370Z,9.15
2022-11-06T07:17:12.908Z,9.17
2022-11-06T07:19:39.325Z,9.18
2022-11-06T07:22:05.775Z,9.18
2022-11-06T07:24:32.190Z,9.15
2022-11-06T07:26:58.632Z,9.17
2022-11-06T07:29:25.028Z,9.18
2022-11-06T07:31:51.416Z,9.22
2022-11-06T07:34:17.830Z,9.21
2022-11-06T07:36:44.271Z,9.20
2022-11-06T07:39:10.797Z,9.25
2022-11-06T07:41:37.860Z,9.27
2022-11-06T07:44:05.155Z,9.26
2022-11-06T07:46:31.779Z,9.23
2022-11-06T07:48:58.148Z,9.22
2022-11-06T07:51:24.568Z,9.23
2022-11-06T07:53:50.932Z,9.16
2022-11-06T07:56:17.347Z,9.26
2022-11-06T07:58:43.729Z,9.22
2022-11-06T08:01:18.486Z,9.24
2022-11-06T08:03:45.242Z,9.26
2022-11-06T08:06:12.044Z,9.26
2022-11-06T08:08:38.528Z,9.24
2022-11-06T08:11:07.212Z,9.31
2022-11-06T08:13:35.078Z,9.32
2022-11-06T08:16:10.959Z,9.34
2022-11-06T08:18:37.936Z,9.35
2022-11-06T08:21:05.240Z,9.33
2022-11-06T08:23:31.972Z,9.34
2022-11-06T08:26:00.819Z,9.38
2022-11-06T08:28:28.041Z,9.29
2022-11-06T08:30:55.362Z,9.40
2022-11-06T08:33:22.993Z,9.30
2022-11-06T08:35:49.426Z,9.42
2022-11-06T08:38:16.901Z,9.42
2022-11-06T08:40:43.381Z,9.43
2022-11-06T08:43:11.075Z,9.42
2022-11-06T08:45:40.518Z,9.47
2022-11-06T08:48:08.774Z,9.49
2022-11-06T08:50:37.174Z,9.45
2022-11-06T08:53:04.471Z,9.48
2022-11-06T08:55:31.452Z,9.51
2022-11-06T08:57:57.861Z,9.48
2022-11-06T09:00:24.799Z,9.50
2022-11-06T09:02:51.357Z,9.51
2022-11-06T09:05:17.712Z,9.53
2022-11-06T09:07:44.118Z,9.51
2022-11-06T09:10:10.511Z,9.55
2022-11-06T09:12:36.915Z,9.60
2022-11-06T09:15:03.483Z,9.60
2022-11-06T09:17:29.858Z,9.55
2022-11-06T09:19:56.270Z,9.58
2022-11-06T09:22:22.693Z,9.62
2022-11-06T09:25:03.140Z,9.61
2022-11-06T09:27:30.386Z,9.59
2022-11-06T09:29:56.960Z,9.64
2022-11-06T09:32:24.017Z,9.68
2022-11-06T09:34:50.781Z,9.63
2022-11-06T09:37:17.174Z,9.66
2022-11-06T09:39:43.717Z,9.67
2022-11-06T09:42:31.488Z,9.73
2022-11-06T09:45:08.784Z,9.77
2022-11-06T09:47:41.581Z,9.61
2022-11-06T09:50:17.128Z,9.90
2022-11-06T09:52:54.520Z,9.97
2022-11-06T09:55:30.365Z,10.02
2022-11-06T09:58:01.715Z,10.06
2022-11-06T10:00:28.247Z,10.12
2022-11-06T10:03:00.976Z,10.08
2022-11-06T10:05:31.183Z,10.10
2022-11-06T10:08:00.376Z,10.15
2022-11-06T10:10:51.681Z,10.14
2022-11-06T10:13:22.734Z,10.15
2022-11-06T10:16:14.702Z,10.18
2022-11-06T10:18:58.696Z,10.20
2022-11-06T10:21:41.810Z,10.18
2022-11-06T10:24:20.775Z,10.22
2022-11-06T10:26:57.505Z,10.20
2022-11-06T10:29:38.921Z,10.34
2022-11-06T10:32:32.905Z,10.39
2022-11-06T10:35:37.365Z,10.43
2022-11-06T10:38:10.045Z,10.40
2022-11-06T10:40:36.750Z,10.43
2022-11-06T10:43:34.650Z,10.38
2022-11-06T10:46:27.967Z,10.39
2022-11-06T10:49:00.753Z,10.24
2022-11-06T10:51:43.448Z,10.26
2022-11-06T10:55:02.329Z,10.28
2022-11-06T10:57:40.454Z,10.18
2022-11-06T11:00:11.790Z,10.21
2022-11-06T11:02:44.580Z,10.12
2022-11-06T11:05:17.148Z,10.18
2022-11-06T11:07:45.957Z,9.99
2022-11-06T11:10:28.035Z,10.16
2022-11-06T11:12:56.949Z,9.90
2022-11-06T11:15:25.963Z,10.07
2022-11-06T11:18:07.428Z,10.06
2022-11-06T11:20:35.674Z,10.06
2022-11-06T11:23:06.388Z,10.06
2022-11-06T11:25:33.289Z,10.03
2022-11-06T11:28:04.630Z,10.02
2022-11-06T11:30:31.651Z,9.99
2022-11-06T11:32:58.565Z,10.01
2022-11-06T11:35:30.665Z,10.02
2022-11-06T11:38:07.340Z,10.04
2022-11-06T11:40:38.618Z,10.04
2022-11-06T11:43:26.325Z,9.96
2022-11-06T11:46:17.179Z,10.00
2022-11-06T11:48:46.490Z,9.99
2022-11-06T11:51:33.968Z,10.00
2022-11-06T11:54:05.328Z,9.97
2022-11-06T11:57:02.337Z,10.01
2022-11-06T11:59:32.094Z,9.97
2022-11-06T12:02:16.299Z,10.01
2022-11-06T12:04:46.762Z,9.96
2022-11-06T12:07:29.216Z,9.94
2022-11-06T12:09:56.840Z,9.91
2022-11-06T12:12:31.323Z,9.87
2022-11-06T12:15:03.446Z,9.89
2022-11-06T12:17:31.004Z,9.87
2022-11-06T12:20:00.151Z,9.86
2022-11-06T12:22:35.685Z,9.88
2022-11-06T12:25:16.067Z,9.89
2022-11-06T12:27:51.167Z,9.87
2022-11-06T12:30:18.950Z,9.88
2022-11-06T12:33:10.637Z,9.89
2022-11-06T12:35:42.539Z,9.88
2022-11-06T12:38:35.813Z,9.91
2022-11-06T12:41:15.266Z,9.93
2022-11-06T12:43:44.594Z,9.84
2022-11-06T12:46:25.016Z,9.92
2022-11-06T12:49:33.089Z,9.96
2022-11-06T12:52:35.259Z,9.99
2022-11-06T12:55:40.723Z,9.97
2022-11-06T12:58:29.015Z,9.94
2022-11-06T13:01:19.333Z,9.89
2022-11-06T13:04:07.140Z,9.90
2022-11-06T13:07:00.053Z,9.87
2022-11-06T13:09:32.186Z,9.86
2022-11-06T13:12:31.038Z,9.86
2022-11-06T13:15:19.810Z,9.84
2022-11-06T13:18:26.552Z,9.82
2022-11-06T13:21:17.845Z,9.80
2022-11-06T13:23:50.237Z,9.78
2022-11-06T13:26:27.412Z,9.76
2022-11-06T13:28:59.063Z,9.75
2022-11-06T13:31:35.872Z,9.75
2022-11-06T13:34:03.855Z,9.73
2022-11-06T13:36:35.405Z,9.67
2022-11-06T13:39:18.128Z,9.68
2022-11-06T13:41:44.599Z,9.65
2022-11-06T13:44:18.258Z,9.62
2022-11-06T13:47:03.240Z,9.64
2022-11-06T13:49:47.752Z,9.63
2022-11-06T13:52:29.005Z,9.62
2022-11-06T13:55:07.562Z,9.65
2022-11-06T13:57:52.782Z,9.63
2022-11-06T14:00:51.843Z,9.63
2022-11-06T14:03:52.304Z,9.56
2022-11-06T14:06:21.818Z,9.55
2022-11-06T14:08:52.717Z,9.42
2022-11-06T14:11:36.698Z,9.52
2022-11-06T14:14:24.268Z,9.53
2022-11-06T14:17:13.780Z,9.45
2022-11-06T14:20:01.481Z,9.43
2022-11-06T14:22:36.273Z,9.40
2022-11-06T14:25:27.343Z,9.41
2022-11-06T14:27:53.713Z,9.42
2022-11-06T14:30:50.127Z,9.36
2022-11-06T14:33:41.937Z,9.36
2022-11-06T14:36:23.736Z,9.37
2022-11-06T14:38:51.373Z,9.24
2022-11-06T14:41:53.905Z,9.27
2022-11-06T14:44:30.169Z,9.14
2022-11-06T14:47:03.085Z,9.17
2022-11-06T14:49:42.075Z,9.23
2022-11-06T14:52:12.792Z,9.22
2022-11-06T14:54:42.813Z,9.09
2022-11-06T14:57:15.881Z,9.00
2022-11-06T14:59:43.016Z,8.97
2022-11-06T15:02:19.291Z,9.03
2022-11-06T15:05:09.074Z,8.81
2022-11-06T15:08:10.650Z,8.84
2022-11-06T15:10:43.007Z,8.83
2022-11-06T15:13:23.994Z,8.78
2022-11-06T15:15:55.545Z,8.74
2022-11-06T15:18:24.376Z,8.75
2022-11-06T15:20:55.189Z,8.76
2022-11-06T15:23:26.928Z,8.82
2022-11-06T15:26:32.309Z,8.73
2022-11-06T15:29:04.724Z,8.75
2022-11-06T15:31:32.800Z,8.73
2022-11-06T15:34:05.653Z,8.71
2022-11-06T15:36:40.498Z,8.66
2022-11-06T15:39:37.892Z,8.60
2022-11-06T15:42:08.836Z,8.58
2022-11-06T15:44:40.157Z,8.60
2022-11-06T15:47:22.895Z,8.56
2022-11-06T15:50:15.493Z,8.53
2022-11-06T15:52:42.801Z,8.47
2022-11-06T15:55:32.080Z,8.56
2022-11-06T15:58:30.420Z,8.55
2022-11-06T16:00:58.893Z,8.49
2022-11-06T16:03:28.721Z,8.44
2022-11-06T16:05:58.642Z,8.50
2022-11-06T16:08:28.132Z,8.48
2022-11-06T16:10:55.601Z,8.30
2022-11-06T16:13:24.895Z,8.29
2022-11-06T16:16:00.616Z,8.22
2022-11-06T16:18:32.435Z,8.20
2022-11-06T16:21:09.379Z,8.29
2022-11-06T16:23:44.927Z,8.24
2022-11-06T16:26:15.671Z,8.23
2022-11-06T16:28:44.229Z,8.17
2022-11-06T16:31:15.512Z,8.17
2022-11-06T16:33:54.114Z,8.14
2022-11-06T16:36:20.615Z,8.19
2022-11-06T16:38:47.360Z,8.18
2022-11-06T16:41:39.545Z,8.09
2022-11-06T16:44:38.497Z,8.08
2022-11-06T16:47:04.818Z,8.09
2022-11-06T16:49:33.609Z,8.07
2022-11-06T16:52:00.282Z,8.04
2022-11-06T16:54:31.403Z,8.03
2022-11-06T16:57:09.774Z,7.91
2022-11-06T16:59:37.289Z,7.97
2022-11-06T17:02:04.489Z,8.08
2022-11-06T17:04:31.042Z,7.89
2022-11-06T17:06:58.561Z,8.01
2022-11-06T17:09:33.823Z,7.91
2022-11-06T17:12:01.625Z,8.04
2022-11-06T17:14:28.306Z,7.91
2022-11-06T17:17:00.541Z,7.96
2022-11-06T17:19:28.553Z,7.90
2022-11-06T17:21:55.564Z,7.94
2022-11-06T17:24:38.099Z,7.97
2022-11-06T17:27:05.275Z,7.95
2022-11-06T17:29:33.512Z,8.06
2022-11-06T17:31:59.964Z,8.10
2022-11-06T17:34:26.313Z,8.08
2022-11-06T17:36:52.883Z,8.10
2022-11-06T17:39:19.456Z,8.10
2022-11-06T17:41:45.842Z,8.08
2022-11-06T17:44:13.082Z,8.01
2022-11-06T17:46:45.458Z,8.13
2022-11-06T17:49:18.162Z,8.18
2022-11-06T17:51:59.699Z,8.17
2022-11-06T17:54:30.322Z,8.18
2022-11-06T17:56:56.928Z,8.16
2022-11-06T17:59:26.594Z,8.26
2022-11-06T18:01:54.946Z,8.27
2022-11-06T18:04:23.513Z,8.28
2022-11-06T18:06:52.162Z,8.29
2022-11-06T18:09:19.980Z,8.35
2022-11-06T18:11:49.253Z,8.38
2022-11-06T18:14:16.113Z,8.39
2022-11-06T18:16:44.015Z,8.42
2022-11-06T18:19:16.884Z,8.40
2022-11-06T18:21:43.452Z,8.44
2022-11-06T18:24:09.872Z,8.44
2022-11-06T18:26:37.400Z,8.47
2022-11-06T18:29:05.501Z,8.46
2022-11-06T18:31:32.084Z,8.45
2022-11-06T18:33:58.506Z,8.44
2022-11-06T18:36:24.986Z,8.45
2022-11-06T18:38:51.468Z,8.46
2022-11-06T18:41:20.788Z,8.47
2022-11-06T18:43:47.343Z,8.44
2022-11-06T18:46:16.196Z,8.44
2022-11-06T18:48:44.520Z,8.47
2022-11-06T18:51:32.381Z,8.47
2022-11-06T18:54:02.337Z,8.51
2022-11-06T18:56:29.834Z,8.52
2022-11-06T18:58:56.643Z,8.47
2022-11-06T19:01:23.483Z,8.49
2022-11-06T19:03:50.257Z,8.53
2022-11-06T19:06:19.077Z,8.55
2022-11-06T19:08:45.524Z,8.54
2022-11-06T19:11:15.262Z,8.58
2022-11-06T19:13:47.565Z,8.60
2022-11-06T19:16:15.395Z,8.61
2022-11-06T19:18:41.978Z,8.60
2022-11-06T19:21:10.878Z,8.65
2022-11-06T19:23:39.141Z,8.65
2022-11-06T19:28:58.464Z,8.66
2022-11-06T19:31:29.156Z,8.67
2022-11-06T19:33:56.909Z,8.72
2022-11-06T19:36:25.037Z,8.72
2022-11-06T19:38:51.669Z,8.75
2022-11-06T19:41:18.178Z,8.73
2022-11-06T19:43:44.568Z,8.77
2022-11-06T19:46:11.101Z,8.73
2022-11-06T19:48:37.524Z,8.82
2022-11-06T19:51:08.883Z,8.83
2022-11-06T19:53:35.296Z,8.81
2022-11-06T19:56:09.297Z,8.82
2022-11-06T19:58:36.646Z,8.83
2022-11-06T20:01:07.937Z,8.82
2022-11-06T20:03:34.870Z,8.87
2022-11-06T20:06:06.453Z,8.88
2022-11-06T20:08:34.383Z,8.89
2022-11-06T20:11:07.407Z,8.92
2022-11-06T20:13:36.461Z,8.95
2022-11-06T20:16:04.499Z,8.99
2022-11-06T20:18:31.675Z,8.94
2022-11-06T20:21:06.907Z,8.98
2022-11-06T20:23:34.086Z,8.99
2022-11-06T20:26:00.728Z,8.98
2022-11-06T20:28:27.391Z,9.01
2022-11-06T20:30:54.277Z,9.02
2022-11-06T20:33:20.765Z,9.04
2022-11-06T20:35:47.215Z,9.04
2022-11-06T20:38:14.611Z,9.04
2022-11-06T20:40:43.773Z,9.06
2022-11-06T20:43:10.333Z,9.03
2022-11-06T20:45:37.471Z,9.03
2022-11-06T20:48:05.777Z,9.00
2022-11-06T20:50:32.260Z,9.00
2022-11-06T20:52:58.820Z,9.02
2022-11-06T20:55:25.363Z,9.01
2022-11-06T20:57:52.037Z,8.96
2022-11-06T21:00:18.845Z,9.02
2022-11-06T21:02:46.490Z,9.07
2022-11-06T21:05:14.950Z,9.00
2022-11-06T21:07:41.913Z,9.01
2022-11-06T21:10:09.969Z,9.00
2022-11-06T21:12:36.351Z,9.05
2022-11-06T21:15:03.013Z,9.05
2022-11-06T21:17:29.474Z,9.03
2022-11-06T21:19:55.842Z,8.99
2022-11-06T21:22:22.208Z,8.97
2022-11-06T21:24:49.069Z,9.05
2022-11-06T21:27:15.487Z,9.06
2022-11-06T21:29:42.027Z,9.14
2022-11-06T21:32:08.419Z,9.09
2022-11-06T21:34:34.952Z,9.08
2022-11-06T21:37:03.050Z,9.10
2022-11-06T21:39:34.578Z,9.04
2022-11-06T21:42:02.630Z,9.05
2022-11-06T21:44:29.026Z,9.08
2022-11-06T21:46:55.411Z,9.13
2022-11-06T21:49:21.784Z,9.09
2022-11-06T21:51:48.161Z,9.11
2022-11-06T21:54:33.310Z,9.09
2022-11-06T21:56:59.733Z,9.06
2022-11-06T21:59:28.344Z,9.05
2022-11-06T22:01:55.050Z,9.10
2022-11-06T22:04:21.629Z,9.11
2022-11-06T22:06:48.029Z,9.19
2022-11-06T22:09:24.424Z,9.15
2022-11-06T22:11:51.905Z,9.21
2022-11-06T22:14:18.424Z,9.16
2022-11-06T22:16:46.725Z,9.16
2022-11-06T22:19:14.597Z,9.26
2022-11-06T22:21:41.665Z,9.23
2022-11-06T22:24:10.556Z,9.23
2022-11-06T22:26:37.783Z,9.30
2022-11-06T22:29:08.576Z,9.30
2022-11-06T22:31:35.533Z,9.24
2022-11-06T22:34:02.299Z,9.18
2022-11-06T22:36:28.746Z,9.20
2022-11-06T22:38:55.531Z,9.20
2022-11-06T22:41:24.239Z,9.22
2022-11-06T22:43:51.892Z,9.19
2022-11-06T22:46:23.460Z,9.13
2022-11-06T22:48:51.365Z,9.18
2022-11-06T22:51:21.257Z,9.18
2022-11-06T22:53:48.138Z,9.20
2022-11-06T22:56:14.547Z,9.24
2022-11-06T22:58:42.637Z,9.23
2022-11-06T23:01:09.807Z,9.22
2022-11-06T23:03:36.644Z,9.29
2022-11-06T23:06:05.737Z,9.30
2022-11-06T23:08:32.291Z,9.27
2022-11-06T23:10:59.368Z,9.29
2022-11-06T23:13:25.873Z,9.30
2022-11-06T23:16:03.637Z,9.33
2022-11-06T23:18:30.061Z,9.36
2022-11-06T23:20:56.634Z,9.34
2022-11-06T23:23:23.409Z,9.40
2022-11-06T23:25:49.797Z,9.31
2022-11-06T23:28:16.357Z,9.31
2022-11-06T23:30:42.940Z,9.30
2022-11-06T23:33:09.394Z,9.31
2022-11-06T23:35:35.985Z,9.37
2022-11-06T23:38:02.423Z,9.35
2022-11-06T23:40:28.853Z,9.45
2022-11-06T23:42:57.148Z,9.47
2022-11-06T23:45:42.204Z,9.41
2022-11-06T23:48:15.898Z,9.35
2022-11-06T23:50:47.089Z,9.36
2022-11-06T23:53:15.443Z,9.39
2022-11-06T23:55:42.317Z,9.40
2022-11-06T23:58:09.020Z,9.42
